createdAt,value
2023-02-19T00:00:18.604Z,9.31
2023-02-19T00:03:03.803Z,9.28
2023-02-19T00:05:49.071Z,9.22
2023-02-19T00:08:36.130Z,9.16
2023-02-19T00:11:23.700Z,9.13
2023-02-19T00:14:10.486Z,9.11
2023-02-19T00:16:55.823Z,9.08
2023-02-19T00:19:41.102Z,9.04
2023-02-19T00:22:26.120Z,8.98
2023-02-19T00:25:10.960Z,8.93
2023-02-19T00:27:56.080Z,8.91
2023-02-19T00:30:41.259Z,8.81
2023-02-19T00:33:28.611Z,8.92
2023-02-19T00:36:14.959Z,8.86
2023-02-19T00:39:00.178Z,8.87
2023-02-19T00:41:46.544Z,8.80
2023-02-19T00:44:31.837Z,8.82
2023-02-19T00:47:17.090Z,8.76
2023-02-19T00:50:02.345Z,8.75
2023-02-19T00:52:47.283Z,8.76
2023-02-19T00:55:32.479Z,8.61
2023-02-19T00:58:17.620Z,8.70
2023-02-19T01:01:03.335Z,8.68
2023-02-19T01:03:49.296Z,8.61
2023-02-19T01:06:35.302Z,8.61
2023-02-19T01:09:20.317Z,8.64
2023-02-19T01:12:06.458Z,8.60
2023-02-19T01:14:51.550Z,8.69
2023-02-19T01:17:36.683Z,8.74
2023-02-19T01:20:21.942Z,8.67
2023-02-19T01:23:07.411Z,8.76
2023-02-19T01:25:52.485Z,8.80
2023-02-19T01:28:37.737Z,8.81
2023-02-19T01:31:24.609Z,8.82
2023-02-19T01:34:11.044Z,8.77
2023-02-19T01:36:56.026Z,8.84
2023-02-19T01:39:40.951Z,8.85
2023-02-19T01:42:26.180Z,8.84
2023-02-19T01:45:29.881Z,8.87
2023-02-19T01:48:20.913Z,8.81
2023-02-19T01:51:11.191Z,8.76
2023-02-19T01:54:00.201Z,8.65
2023-02-19T01:56:48.314Z,8.56
2023-02-19T01:59:34.450Z,8.65
2023-02-19T02:02:19.624Z,8.56
2023-02-19T02:05:10.414Z,8.59
2023-02-19T02:08:14.504Z,8.61
2023-02-19T02:11:00.886Z,8.64
2023-02-19T02:13:46.237Z,8.60
2023-02-19T02:16:39.939Z,8.59
2023-02-19T02:20:03.201Z,8.65
2023-02-19T02:22:57.747Z,8.58
2023-02-19T02:25:58.193Z,8.68
2023-02-19T02:29:22.209Z,8.62
2023-02-19T02:32:16.141Z,8.38
2023-02-19T02:35:07.497Z,8.50
2023-02-19T02:37:56.929Z,8.48
2023-02-19T02:40:44.978Z,8.46
2023-02-19T02:43:31.580Z,8.42
2023-02-19T02:46:23.568Z,8.38
2023-02-19T02:49:17.191Z,8.36
2023-02-19T02:52:22.579Z,8.33
2023-02-19T02:55:10.895Z,8.28
2023-02-19T02:57:56.025Z,8.24
2023-02-19T03:01:02.970Z,8.25
2023-02-19T03:03:54.729Z,8.15
2023-02-19T03:06:43.614Z,8.13
2023-02-19T03:09:40.721Z,8.13
2023-02-19T03:12:47.583Z,8.11
2023-02-19T03:15:57.619Z,8.02
2023-02-19T03:19:04.920Z,8.07
2023-02-19T03:22:03.122Z,8.03
2023-02-19T03:25:19.392Z,7.79
2023-02-19T03:28:08.341Z,7.93
2023-02-19T03:30:55.427Z,7.93
2023-02-19T03:33:43.191Z,7.88
2023-02-19T03:36:37.757Z,7.85
2023-02-19T03:39:23.788Z,7.84
2023-02-19T03:42:21.693Z,7.83
2023-02-19T03:45:30.486Z,7.81
2023-02-19T03:48:29.406Z,7.77
2023-02-19T03:51:25.165Z,7.74
2023-02-19T03:54:28.503Z,7.75
2023-02-19T03:57:23.600Z,7.66
2023-02-19T04:00:35.835Z,7.73
2023-02-19T04:03:29.463Z,7.72
2023-02-19T04:06:19.674Z,7.70
2023-02-19T04:09:08.707Z,7.73
2023-02-19T04:11:55.160Z,7.70
2023-02-19T04:14:46.907Z,7.74
2023-02-19T04:17:39.246Z,7.63
2023-02-19T04:20:27.274Z,7.70
2023-02-19T04:23:14.645Z,7.65
2023-02-19T04:26:01.205Z,7.51
2023-02-19T04:28:46.814Z,7.59
2023-02-19T04:31:35.322Z,7.57
2023-02-19T04:34:20.376Z,7.53
2023-02-19T04:37:06.019Z,7.44
2023-02-19T04:39:50.989Z,7.50
2023-02-19T04:42:36.242Z,7.48
2023-02-19T04:45:21.340Z,7.42
2023-02-19T04:48:06.649Z,7.42
2023-02-19T04:50:51.508Z,7.38
2023-02-19T04:53:37.452Z,7.34
2023-02-19T04:56:22.705Z,7.34
2023-02-19T04:59:07.792Z,7.36
2023-02-19T05:01:52.964Z,7.37
2023-02-19T05:04:37.974Z,7.43
2023-02-19T05:07:23.073Z,7.45
2023-02-19T05:10:08.349Z,7.44
2023-02-19T05:12:56.863Z,7.41
2023-02-19T05:15:42.992Z,7.43
2023-02-19T05:18:28.459Z,7.41
2023-02-19T05:21:14.652Z,7.46
2023-02-19T05:23:59.968Z,7.49
2023-02-19T05:26:45.552Z,7.50
2023-02-19T05:29:32.030Z,7.40
2023-02-19T05:32:17.220Z,7.51
2023-02-19T05:35:02.085Z,7.41
2023-02-19T05:37:47.330Z,7.40
2023-02-19T05:40:32.255Z,7.53
2023-02-19T05:43:18.173Z,7.54
2023-02-19T05:46:03.382Z,7.57
2023-02-19T05:48:49.509Z,7.59
2023-02-19T05:51:34.529Z,7.59
2023-02-19T05:54:19.483Z,7.56
2023-02-19T05:57:04.461Z,7.50
2023-02-19T05:59:49.330Z,7.47
2023-02-19T06:02:34.700Z,7.40
2023-02-19T06:05:20.045Z,7.27
2023-02-19T06:08:05.493Z,7.37
2023-02-19T06:10:50.809Z,7.11
2023-02-19T06:13:35.996Z,7.27
2023-02-19T06:16:22.120Z,7.23
2023-02-19T06:19:07.172Z,7.18
2023-02-19T06:21:52.476Z,7.16
2023-02-19T06:24:37.812Z,7.13
2023-02-19T06:27:23.023Z,7.10
2023-02-19T06:30:09.059Z,7.07
2023-02-19T06:32:54.382Z,6.91
2023-02-19T06:35:39.340Z,6.90
2023-02-19T06:38:24.982Z,6.96
2023-02-19T06:41:11.372Z,6.94
2023-02-19T06:43:58.547Z,6.94
2023-02-19T06:46:43.801Z,6.90
2023-02-19T06:49:29.287Z,6.80
2023-02-19T06:52:14.683Z,6.85
2023-02-19T06:54:59.795Z,6.84
2023-02-19T06:57:44.915Z,6.84
2023-02-19T07:00:30.215Z,6.81
2023-02-19T07:03:15.444Z,6.79
2023-02-19T07:06:00.965Z,6.80
2023-02-19T07:08:46.389Z,6.78
2023-02-19T07:11:33.980Z,6.72
2023-02-19T07:14:19.192Z,6.81
2023-02-19T07:17:04.505Z,6.78
2023-02-19T07:19:49.519Z,6.80
2023-02-19T07:22:34.509Z,6.76
2023-02-19T07:25:19.714Z,6.79
2023-02-19T07:28:04.955Z,6.78
2023-02-19T07:30:50.445Z,6.81
2023-02-19T07:33:35.622Z,6.70
2023-02-19T07:36:23.693Z,6.84
2023-02-19T07:39:13.101Z,6.87
2023-02-19T07:41:58.549Z,6.90
2023-02-19T07:44:43.581Z,6.91
2023-02-19T07:47:29.562Z,6.96
2023-02-19T07:50:14.532Z,6.97
2023-02-19T07:52:59.878Z,6.99
2023-02-19T07:55:45.024Z,7.01
2023-02-19T07:58:30.695Z,6.95
2023-02-19T08:01:39.911Z,6.90
2023-02-19T08:04:25.259Z,7.18
2023-02-19T08:07:10.577Z,7.25
2023-02-19T08:10:15.797Z,7.25
2023-02-19T08:13:19.433Z,7.20
2023-02-19T08:16:16.348Z,7.21
2023-02-19T08:19:02.539Z,7.33
2023-02-19T08:21:47.720Z,7.36
2023-02-19T08:24:33.883Z,7.36
2023-02-19T08:27:18.958Z,7.39
2023-02-19T08:30:05.481Z,7.45
2023-02-19T08:32:50.683Z,7.49
2023-02-19T08:35:36.630Z,7.56
2023-02-19T08:38:21.774Z,7.59
2023-02-19T08:41:09.748Z,7.64
2023-02-19T08:43:55.326Z,7.63
2023-02-19T08:46:40.490Z,7.60
2023-02-19T08:49:28.542Z,7.62
2023-02-19T08:52:13.863Z,7.64
2023-02-19T08:54:59.466Z,7.65
2023-02-19T08:57:45.049Z,7.61
2023-02-19T09:00:30.306Z,7.73
2023-02-19T09:03:15.636Z,7.77
2023-02-19T09:06:00.803Z,7.85
2023-02-19T09:08:46.137Z,7.84
2023-02-19T09:11:31.373Z,7.77
2023-02-19T09:14:16.535Z,7.85
2023-02-19T09:17:04.337Z,7.84
2023-02-19T09:19:50.859Z,7.88
2023-02-19T09:22:36.097Z,7.90
2023-02-19T09:25:21.420Z,7.92
2023-02-19T09:28:06.793Z,7.91
2023-02-19T09:30:52.105Z,7.88
2023-02-19T09:33:37.338Z,7.83
2023-02-19T09:36:22.293Z,7.90
2023-02-19T09:39:10.460Z,8.14
2023-02-19T09:42:01.216Z,8.28
2023-02-19T09:44:51.725Z,8.43
2023-02-19T09:47:36.827Z,8.42
2023-02-19T09:50:30.332Z,8.63
2023-02-19T09:53:27.222Z,8.58
2023-02-19T09:56:12.279Z,8.66
2023-02-19T09:58:59.485Z,8.82
2023-02-19T10:01:45.343Z,8.99
2023-02-19T10:04:30.380Z,8.97
2023-02-19T10:07:18.098Z,9.10
2023-02-19T10:10:17.930Z,9.11
2023-02-19T10:13:28.726Z,9.28
2023-02-19T10:16:19.443Z,9.24
2023-02-19T10:19:05.149Z,9.22
2023-02-19T10:21:50.153Z,9.45
2023-02-19T10:24:37.564Z,9.51
2023-02-19T10:27:29.157Z,9.57
2023-02-19T10:30:21.800Z,9.57
2023-02-19T10:33:16.713Z,9.68
2023-02-19T10:36:07.730Z,9.74
2023-02-19T10:38:53.311Z,9.84
2023-02-19T10:41:44.048Z,9.90
2023-02-19T10:44:38.394Z,10.03
2023-02-19T10:47:26.422Z,10.14
2023-02-19T10:50:48.053Z,10.29
2023-02-19T10:53:48.900Z,10.38
2023-02-19T10:56:34.071Z,10.46
2023-02-19T10:59:18.963Z,10.44
2023-02-19T11:02:17.376Z,10.35
2023-02-19T11:05:18.216Z,10.46
2023-02-19T11:08:03.278Z,10.57
2023-02-19T11:10:49.856Z,10.81
2023-02-19T11:13:38.011Z,10.87
2023-02-19T11:16:42.198Z,10.71
2023-02-19T11:19:37.314Z,10.84
2023-02-19T11:22:35.524Z,10.79
2023-02-19T11:25:25.635Z,10.89
2023-02-19T11:28:17.856Z,11.09
2023-02-19T11:31:23.589Z,11.34
2023-02-19T11:34:14.808Z,11.30
2023-02-19T11:37:10.706Z,11.59
2023-02-19T11:39:55.762Z,11.72
2023-02-19T11:43:12.327Z,11.70
2023-02-19T11:46:24.862Z,12.03
2023-02-19T11:49:34.020Z,12.02
2023-02-19T11:52:22.434Z,12.18
2023-02-19T11:55:16.443Z,12.24
2023-02-19T11:58:21.651Z,12.42
2023-02-19T12:01:31.554Z,12.35
2023-02-19T12:04:47.718Z,12.20
2023-02-19T12:07:38.869Z,12.37
2023-02-19T12:10:52.879Z,12.37
2023-02-19T12:13:53.483Z,12.58
2023-02-19T12:16:55.900Z,12.65
2023-02-19T12:19:53.222Z,12.72
2023-02-19T12:23:00.204Z,12.73
2023-02-19T12:25:57.092Z,12.59
2023-02-19T12:29:12.834Z,12.89
2023-02-19T12:32:16.585Z,13.05
2023-02-19T12:35:23.666Z,13.18
2023-02-19T12:38:11.641Z,13.26
2023-02-19T12:41:06.113Z,13.20
2023-02-19T12:44:00.539Z,13.01
2023-02-19T12:46:52.057Z,12.82
2023-02-19T12:49:42.536Z,12.72
2023-02-19T12:52:34.473Z,12.86
2023-02-19T12:55:27.199Z,13.16
2023-02-19T12:58:33.825Z,13.25
2023-02-19T13:01:26.389Z,13.37
2023-02-19T13:04:21.986Z,13.15
2023-02-19T13:07:31.552Z,13.12
2023-02-19T13:10:26.704Z,13.12
2023-02-19T13:13:30.727Z,13.18
2023-02-19T13:16:19.059Z,13.01
2023-02-19T13:19:05.518Z,13.06
2023-02-19T13:22:35.195Z,13.24
2023-02-19T13:25:21.123Z,13.35
2023-02-19T13:28:40.161Z,13.29
2023-02-19T13:32:06.890Z,13.09
2023-02-19T13:35:06.320Z,13.11
2023-02-19T13:37:53.247Z,13.00
2023-02-19T13:40:52.883Z,12.97
2023-02-19T13:43:39.096Z,12.95
2023-02-19T13:46:25.333Z,13.06
2023-02-19T13:49:36.923Z,12.97
2023-02-19T13:52:33.727Z,13.04
2023-02-19T13:55:47.125Z,13.52
2023-02-19T13:58:32.522Z,13.84
2023-02-19T14:01:18.497Z,13.97
2023-02-19T14:04:37.270Z,13.85
2023-02-19T14:07:28.284Z,13.79
2023-02-19T14:10:50.430Z,13.89
2023-02-19T14:13:47.693Z,14.03
2023-02-19T14:16:50.445Z,14.22
2023-02-19T14:19:41.587Z,14.26
2023-02-19T14:22:45.053Z,14.18
2023-02-19T14:25:39.788Z,14.45
2023-02-19T14:28:37.991Z,14.52
2023-02-19T14:31:31.991Z,14.69
2023-02-19T14:34:23.616Z,14.76
2023-02-19T14:37:19.743Z,14.88
2023-02-19T14:40:05.597Z,14.88
2023-02-19T14:42:55.097Z,14.72
2023-02-19T14:45:46.586Z,14.75
2023-02-19T14:48:38.191Z,14.64
2023-02-19T14:51:44.636Z,14.68
2023-02-19T14:54:39.858Z,14.70
2023-02-19T14:57:29.542Z,14.51
2023-02-19T15:00:30.881Z,14.52
2023-02-19T15:03:34.934Z,14.38
2023-02-19T15:06:20.228Z,14.08
2023-02-19T15:09:07.272Z,14.04
2023-02-19T15:11:54.235Z,14.01
2023-02-19T15:14:40.236Z,13.84
2023-02-19T15:17:29.222Z,13.67
2023-02-19T15:20:19.754Z,13.53
2023-02-19T15:23:07.446Z,13.49
2023-02-19T15:25:53.076Z,13.35
2023-02-19T15:28:38.008Z,13.25
2023-02-19T15:31:22.974Z,13.28
2023-02-19T15:34:16.664Z,13.06
2023-02-19T15:37:06.395Z,13.08
2023-02-19T15:39:53.266Z,13.01
2023-02-19T15:42:38.593Z,12.85
2023-02-19T15:45:28.109Z,12.99
2023-02-19T15:48:18.595Z,12.89
2023-02-19T15:51:11.999Z,12.86
2023-02-19T15:54:07.631Z,12.66
2023-02-19T15:56:56.912Z,12.75
2023-02-19T15:59:53.326Z,12.74
2023-02-19T16:02:38.516Z,12.53
2023-02-19T16:05:28.875Z,12.60
2023-02-19T16:08:20.932Z,12.56
2023-02-19T16:11:27.579Z,12.45
2023-02-19T16:14:37.556Z,12.47
2023-02-19T16:17:27.893Z,12.42
2023-02-19T16:20:34.651Z,12.36
2023-02-19T16:23:24.110Z,12.21
2023-02-19T16:26:09.331Z,12.19
2023-02-19T16:28:55.459Z,12.17
2023-02-19T16:31:50.734Z,12.11
2023-02-19T16:34:50.919Z,12.06
2023-02-19T16:37:41.175Z,12.02
2023-02-19T16:40:35.365Z,12.00
2023-02-19T16:43:41.514Z,11.73
2023-02-19T16:46:26.648Z,11.88
2023-02-19T16:49:11.886Z,11.81
2023-02-19T16:51:59.749Z,11.75
2023-02-19T16:54:45.027Z,11.66
2023-02-19T16:57:32.085Z,11.63
2023-02-19T17:00:28.901Z,11.54
2023-02-19T17:03:18.919Z,11.56
2023-02-19T17:06:04.197Z,11.45
2023-02-19T17:08:49.449Z,11.38
2023-02-19T17:11:36.031Z,11.31
2023-02-19T17:14:21.029Z,11.26
2023-02-19T17:17:06.415Z,11.18
2023-02-19T17:19:51.754Z,11.11
2023-02-19T17:22:36.957Z,11.01
2023-02-19T17:25:23.300Z,10.92
2023-02-19T17:28:08.622Z,10.87
2023-02-19T17:30:54.163Z,10.81
2023-02-19T17:33:39.608Z,10.72
2023-02-19T17:36:30.425Z,10.67
2023-02-19T17:39:16.316Z,10.56
2023-02-19T17:42:01.662Z,10.49
2023-02-19T17:44:47.439Z,10.54
2023-02-19T17:47:32.625Z,10.49
2023-02-19T17:50:21.640Z,10.28
2023-02-19T17:53:07.381Z,10.16
2023-02-19T17:55:52.502Z,9.87
2023-02-19T17:58:37.517Z,9.98
2023-02-19T18:01:23.452Z,9.87
2023-02-19T18:04:08.874Z,9.80
2023-02-19T18:06:54.109Z,9.78
2023-02-19T18:09:41.079Z,9.65
2023-02-19T18:12:26.624Z,9.72
2023-02-19T18:15:18.353Z,9.63
2023-02-19T18:18:04.988Z,9.54
2023-02-19T18:20:50.380Z,9.49
2023-02-19T18:23:35.734Z,9.42
2023-02-19T18:26:21.515Z,9.38
2023-02-19T18:29:06.822Z,9.31
2023-02-19T18:31:52.053Z,9.26
2023-02-19T18:34:37.233Z,9.20
2023-02-19T18:37:24.312Z,9.07
2023-02-19T18:40:09.980Z,9.13
2023-02-19T18:42:55.547Z,9.17
2023-02-19T18:45:40.682Z,9.10
2023-02-19T18:48:25.934Z,9.01
2023-02-19T18:51:12.478Z,8.95
2023-02-19T18:53:58.444Z,8.90
2023-02-19T18:56:45.275Z,8.84
2023-02-19T18:59:30.951Z,8.83
2023-02-19T19:02:16.143Z,8.79
2023-02-19T19:05:01.549Z,8.73
2023-02-19T19:07:46.694Z,8.69
2023-02-19T19:10:31.974Z,8.62
2023-02-19T19:13:17.128Z,8.58
2023-02-19T19:16:02.430Z,8.59
2023-02-19T19:18:47.807Z,8.59
2023-02-19T19:21:32.968Z,8.50
2023-02-19T19:24:18.373Z,8.45
2023-02-19T19:27:03.520Z,8.43
2023-02-19T19:29:49.724Z,8.39
2023-02-19T19:32:34.897Z,8.34
2023-02-19T19:35:21.382Z,8.35
2023-02-19T19:38:06.709Z,8.34
2023-02-19T19:40:51.908Z,8.30
2023-02-19T19:43:37.828Z,8.27
2023-02-19T19:46:23.123Z,8.24
2023-02-19T19:49:08.571Z,8.25
2023-02-19T19:51:53.970Z,8.17
2023-02-19T19:54:42.109Z,8.12
2023-02-19T19:57:27.322Z,7.99
2023-02-19T20:00:16.107Z,8.11
2023-02-19T20:03:02.080Z,8.11
2023-02-19T20:05:50.678Z,8.09
2023-02-19T20:08:35.942Z,8.10
2023-02-19T20:11:20.908Z,7.99
2023-02-19T20:14:06.227Z,7.91
2023-02-19T20:16:52.549Z,7.86
2023-02-19T20:19:37.903Z,7.78
2023-02-19T20:22:23.320Z,7.82
2023-02-19T20:25:08.323Z,7.81
2023-02-19T20:27:53.833Z,7.74
2023-02-19T20:30:39.110Z,7.55
2023-02-19T20:33:24.259Z,7.56
2023-02-19T20:36:09.592Z,7.48
2023-02-19T20:38:55.219Z,7.44
2023-02-19T20:41:44.091Z,7.38
2023-02-19T20:44:29.924Z,7.37
2023-02-19T20:47:14.929Z,7.27
2023-02-19T20:50:00.432Z,7.25
2023-02-19T20:52:46.568Z,7.26
2023-02-19T20:55:31.985Z,7.32
2023-02-19T20:58:19.448Z,7.30
2023-02-19T21:01:05.358Z,7.33
2023-02-19T21:03:50.589Z,7.17
2023-02-19T21:06:35.492Z,7.23
2023-02-19T21:09:22.497Z,7.20
2023-02-19T21:12:07.834Z,7.14
2023-02-19T21:14:53.063Z,7.20
2023-02-19T21:17:38.115Z,7.19
2023-02-19T21:20:23.082Z,7.17
2023-02-19T21:23:14.576Z,7.10
2023-02-19T21:26:02.366Z,7.19
2023-02-19T21:28:47.822Z,7.10
2023-02-19T21:31:48.599Z,7.14
2023-02-19T21:34:33.679Z,7.14
2023-02-19T21:37:18.730Z,7.14
2023-02-19T21:40:04.352Z,7.00
2023-02-19T21:42:49.664Z,7.04
2023-02-19T21:45:34.941Z,7.00
2023-02-19T21:48:19.919Z,6.91
2023-02-19T21:51:05.269Z,6.93
2023-02-19T21:53:50.617Z,6.93
2023-02-19T21:56:36.869Z,6.84
2023-02-19T21:59:22.741Z,6.90
2023-02-19T22:02:09.361Z,6.85
2023-02-19T22:04:55.087Z,6.87
2023-02-19T22:07:40.150Z,6.87
2023-02-19T22:10:25.470Z,6.92
2023-02-19T22:13:11.073Z,6.78
2023-02-19T22:15:56.330Z,6.84
2023-02-19T22:18:53.243Z,6.84
2023-02-19T22:21:42.620Z,6.79
2023-02-19T22:24:27.848Z,6.76
2023-02-19T22:27:13.142Z,6.74
2023-02-19T22:29:58.395Z,6.69
2023-02-19T22:32:43.482Z,6.63
2023-02-19T22:35:28.354Z,6.63
2023-02-19T22:38:13.343Z,6.60
2023-02-19T22:40:58.562Z,6.59
2023-02-19T22:43:44.010Z,6.52
2023-02-19T22:46:30.950Z,6.54
2023-02-19T22:49:16.132Z,6.52
2023-02-19T22:52:03.565Z,6.48
2023-02-19T22:54:48.637Z,6.50
2023-02-19T22:57:33.790Z,6.51
2023-02-19T23:00:21.480Z,6.33
2023-02-19T23:03:06.626Z,6.45
2023-02-19T23:05:51.775Z,6.42
2023-02-19T23:08:36.915Z,6.43
2023-02-19T23:11:25.054Z,6.31
2023-02-19T23:14:10.312Z,6.42
2023-02-19T23:16:55.339Z,6.35
2023-02-19T23:19:40.591Z,6.38
2023-02-19T23:22:25.965Z,6.23
2023-02-19T23:25:11.056Z,6.31
2023-02-19T23:27:56.302Z,6.30
2023-02-19T23:30:41.466Z,6.30
2023-02-19T23:33:26.852Z,6.35
2023-02-19T23:36:13.590Z,6.31
2023-02-19T23:38:59.028Z,6.23
2023-02-19T23:41:49.604Z,6.20
2023-02-19T23:44:34.635Z,6.15
2023-02-19T23:47:21.829Z,6.10
2023-02-19T23:50:07.359Z,6.11
2023-02-19T23:52:52.778Z,6.06
2023-02-19T23:55:38.058Z,6.01
2023-02-19T23:58:23.158Z,5.98
